Time;durP1;ratioP1;P1;durP2;ratioP2;P2;SDS_P1;SDS_P2;PMS_P1;PMS_P2;Temp;Humidity;BMP_temperature;BMP_pressure;BME280_temperature;BME280_humidity;BME280_pressure;Samples;Min_cycle;Max_cycle;Signal;HPM_P1;HPM_P2
2021/12/08 00:00:32;;;;;;;2.50;1.85;;;15.00;29.50;;;;;;5054910;28;20623;-68
2021/12/08 00:03:01;;;;;;;2.20;2.00;;;15.00;29.50;;;;;;5055035;28;20213;-67
2021/12/08 00:05:30;;;;;;;2.10;1.85;;;15.00;29.50;;;;;;5056084;28;20205;-68
2021/12/08 00:07:58;;;;;;;2.17;1.80;;;15.00;29.60;;;;;;5055016;28;20209;-67
2021/12/08 00:10:52;;;;;;;2.10;1.90;;;15.00;29.50;;;;;;5054977;28;20229;-67
2021/12/08 00:13:17;;;;;;;2.03;1.88;;;15.00;29.50;;;;;;5054718;28;20308;-67
2021/12/08 00:15:47;;;;;;;2.75;1.80;;;15.00;29.50;;;;;;5055399;28;20228;-67
2021/12/08 00:18:19;;;;;;;2.03;1.83;;;15.00;29.50;;;;;;5055183;28;20216;-68
2021/12/08 00:20:47;;;;;;;1.63;1.50;;;15.00;29.50;;;;;;5055909;28;20403;-67
2021/12/08 00:23:16;;;;;;;1.90;1.70;;;15.00;29.50;;;;;;5064476;28;20479;-67
2021/12/08 00:25:44;;;;;;;2.10;1.90;;;15.00;29.50;;;;;;5075058;28;20204;-68
2021/12/08 00:28:12;;;;;;;1.90;1.80;;;15.00;29.60;;;;;;5075020;28;20219;-68
2021/12/08 00:30:42;;;;;;;2.28;1.90;;;15.00;29.60;;;;;;5075500;28;20564;-67
2021/12/08 00:33:10;;;;;;;2.15;1.63;;;15.00;29.50;;;;;;5074689;28;20563;-68
2021/12/08 00:35:40;;;;;;;2.30;1.75;;;15.00;29.50;;;;;;5072326;28;20207;-67
2021/12/08 00:38:09;;;;;;;2.08;1.67;;;15.00;29.50;;;;;;5075575;28;20661;-68
2021/12/08 00:40:36;;;;;;;1.60;1.50;;;15.00;29.50;;;;;;5075784;28;20212;-68
2021/12/08 00:43:05;;;;;;;1.70;1.60;;;15.00;29.50;;;;;;5051198;28;20256;-68
2021/12/08 00:45:33;;;;;;;1.70;1.58;;;15.00;29.50;;;;;;5055408;28;20212;-68
2021/12/08 00:48:02;;;;;;;1.70;1.60;;;15.00;29.50;;;;;;5055072;28;20221;-68
2021/12/08 00:50:31;;;;;;;1.77;1.52;;;15.00;29.40;;;;;;5055144;28;20604;-68
2021/12/08 00:53:00;;;;;;;1.70;1.60;;;15.00;29.40;;;;;;5055723;28;20220;-68
2021/12/08 00:55:28;;;;;;;1.80;1.63;;;15.00;29.40;;;;;;5055417;28;20201;-68
2021/12/08 00:57:55;;;;;;;1.85;1.70;;;15.00;29.40;;;;;;5055061;28;20229;-69
2021/12/08 01:00:28;;;;;;;1.88;1.77;;;15.00;29.40;;;;;;5054955;28;20235;-68
2021/12/08 01:02:56;;;;;;;1.73;1.63;;;15.00;29.40;;;;;;5055222;28;20577;-68
2021/12/08 01:05:28;;;;;;;2.10;1.83;;;15.00;29.40;;;;;;5055625;28;20399;-68
2021/12/08 01:07:56;;;;;;;2.15;1.80;;;15.00;29.40;;;;;;5055239;28;20577;-69
2021/12/08 01:10:28;;;;;;;2.20;1.80;;;15.00;29.30;;;;;;5054725;28;20272;-69
2021/12/08 01:12:56;;;;;;;2.20;2.00;;;15.00;29.30;;;;;;5055514;28;20212;-68
2021/12/08 01:15:26;;;;;;;2.20;2.00;;;15.00;29.30;;;;;;5055034;28;20631;-67
2021/12/08 01:17:53;;;;;;;2.20;1.80;;;15.00;29.40;;;;;;5054897;28;20286;-68
2021/12/08 01:20:20;;;;;;;1.95;1.80;;;15.00;29.40;;;;;;5055007;28;20200;-68
2021/12/08 01:22:48;;;;;;;2.05;1.83;;;15.00;29.40;;;;;;5054191;28;20603;-68
2021/12/08 01:25:15;;;;;;;2.00;1.80;;;14.90;29.30;;;;;;5054555;28;20510;-69
2021/12/08 01:27:43;;;;;;;2.17;1.90;;;14.90;29.30;;;;;;5054624;28;20213;-69
2021/12/08 01:30:11;;;;;;;2.40;1.90;;;14.90;29.30;;;;;;5054955;28;20498;-68
2021/12/08 01:32:39;;;;;;;2.75;2.15;;;15.00;29.30;;;;;;5054682;28;20208;-68
2021/12/08 01:35:08;;;;;;;1.90;1.70;;;14.90;29.30;;;;;;5054741;28;20212;-68
2021/12/08 01:37:35;;;;;;;2.30;2.10;;;15.00;29.40;;;;;;5053924;28;20224;-67
2021/12/08 01:40:05;;;;;;;1.85;1.65;;;14.90;29.30;;;;;;5053978;28;20198;-67
2021/12/08 01:42:36;;;;;;;2.08;1.73;;;14.90;29.30;;;;;;5054291;28;20209;-68
2021/12/08 01:47:50;;;;;;;2.35;2.03;;;14.90;29.20;;;;;;5050887;28;20649;-69
2021/12/08 01:50:18;;;;;;;2.03;1.83;;;14.90;29.30;;;;;;5069362;28;20510;-69
2021/12/08 01:52:45;;;;;;;1.90;1.70;;;14.90;29.30;;;;;;5052530;28;20197;-70
2021/12/08 01:55:12;;;;;;;2.22;1.90;;;14.90;29.30;;;;;;5053842;28;20209;-70
2021/12/08 01:57:40;;;;;;;2.30;2.10;;;14.90;29.20;;;;;;5053657;28;20245;-70
2021/12/08 02:00:14;;;;;;;2.72;1.95;;;14.90;29.10;;;;;;5054120;28;20205;-70
2021/12/08 02:02:41;;;;;;;2.22;1.98;;;14.90;29.10;;;;;;5054232;28;20239;-70
2021/12/08 02:05:09;;;;;;;2.63;2.03;;;14.80;29.00;;;;;;5054196;28;20216;-70
2021/12/08 02:07:36;;;;;;;2.10;1.90;;;14.80;29.00;;;;;;5053634;28;20603;-70
2021/12/08 02:10:04;;;;;;;2.28;2.00;;;14.80;29.00;;;;;;5053795;28;20241;-71
2021/12/08 02:12:34;;;;;;;3.63;1.95;;;14.80;28.90;;;;;;5054906;28;20213;-71
2021/12/08 02:15:02;;;;;;;2.17;1.98;;;14.80;29.00;;;;;;5057818;28;20266;-70
2021/12/08 02:17:31;;;;;;;1.77;1.65;;;14.70;28.90;;;;;;5057138;28;20279;-71
2021/12/08 02:19:58;;;;;;;2.05;1.85;;;14.70;28.90;;;;;;5057716;28;20212;-70
2021/12/08 02:22:26;;;;;;;2.75;1.80;;;14.80;28.90;;;;;;5057129;28;20216;-70
2021/12/08 02:24:53;;;;;;;3.00;2.03;;;14.70;28.80;;;;;;5056840;28;20209;-70
2021/12/08 02:27:20;;;;;;;2.58;2.00;;;14.70;28.80;;;;;;5056966;28;20228;-70
2021/12/08 02:29:55;;;;;;;2.25;2.00;;;14.70;28.80;;;;;;5057579;28;20240;-71
2021/12/08 02:46:38;;;;;;;2.10;1.90;;;14.60;28.70;;;;;;5057893;28;20453;-71
2021/12/08 02:46:48;;;;;;;1.80;1.55;;;14.60;28.80;;;;;;5056718;28;20240;-71
2021/12/08 02:49:18;;;;;;;1.85;1.70;;;14.60;28.80;;;;;;5056631;28;20258;-71
2021/12/08 02:51:46;;;;;;;2.25;1.90;;;14.50;28.70;;;;;;5056631;28;20216;-71
2021/12/08 02:54:15;;;;;;;2.15;1.95;;;14.50;28.70;;;;;;5046747;28;20216;-70
2021/12/08 02:56:43;;;;;;;3.10;1.65;;;14.50;28.70;;;;;;5056156;28;20616;-71
2021/12/08 02:59:10;;;;;;;1.95;1.63;;;14.50;28.70;;;;;;5056093;28;20201;-71
2021/12/08 03:01:39;;;;;;;2.20;1.77;;;14.50;28.70;;;;;;5057174;28;20605;-70
2021/12/08 03:04:07;;;;;;;2.00;1.80;;;14.50;28.60;;;;;;5057586;28;20220;-70
2021/12/08 03:06:35;;;;;;;1.77;1.60;;;14.50;28.60;;;;;;5057790;28;20504;-70
2021/12/08 03:09:03;;;;;;;2.10;1.90;;;14.50;28.60;;;;;;5061319;28;20241;-70
2021/12/08 03:11:32;;;;;;;2.38;1.63;;;14.50;28.60;;;;;;5077529;28;20495;-70
2021/12/08 03:14:04;;;;;;;2.10;1.70;;;14.40;28.60;;;;;;5071620;28;20212;-70
2021/12/08 03:16:31;;;;;;;2.35;2.15;;;14.40;28.60;;;;;;5056593;28;20205;-70
2021/12/08 03:18:58;;;;;;;2.22;1.67;;;14.40;28.60;;;;;;5057236;28;20205;-70
2021/12/08 03:21:30;;;;;;;2.05;1.88;;;14.40;28.60;;;;;;5056507;28;20484;-70
2021/12/08 03:24:09;;;;;;;2.10;1.80;;;14.40;28.60;;;;;;5056518;28;20610;-71
2021/12/08 03:26:46;;;;;;;2.33;2.00;;;14.40;28.60;;;;;;5055865;28;20399;-70
2021/12/08 03:29:26;;;;;;;2.38;1.52;;;14.40;28.60;;;;;;5056235;28;20224;-70
2021/12/08 03:31:55;;;;;;;1.88;1.65;;;14.40;28.60;;;;;;5057006;28;20246;-70
2021/12/08 03:34:25;;;;;;;2.72;1.70;;;14.40;28.60;;;;;;5056555;28;20207;-71
2021/12/08 03:36:53;;;;;;;1.92;1.73;;;14.40;28.60;;;;;;5056043;28;20227;-71
2021/12/08 03:39:20;;;;;;;1.92;1.65;;;14.40;28.70;;;;;;5055308;28;20559;-71
2021/12/08 03:41:50;;;;;;;2.10;1.90;;;14.40;28.60;;;;;;5055773;28;20205;-70
2021/12/08 03:44:17;;;;;;;1.73;1.63;;;14.40;28.70;;;;;;5055909;28;20213;-70
2021/12/08 03:46:44;;;;;;;1.95;1.77;;;14.30;28.60;;;;;;5056230;28;20211;-70
2021/12/08 03:49:14;;;;;;;1.85;1.67;;;14.30;28.60;;;;;;5055631;28;20602;-70
2021/12/08 03:51:43;;;;;;;1.70;1.60;;;14.30;28.50;;;;;;5055602;28;20589;-70
2021/12/08 03:54:11;;;;;;;1.90;1.50;;;14.30;28.60;;;;;;5056079;28;20217;-70
2021/12/08 03:56:39;;;;;;;1.80;1.65;;;14.30;28.60;;;;;;5055211;28;20220;-70
2021/12/08 03:59:08;;;;;;;2.20;2.00;;;14.30;28.60;;;;;;5055319;28;20213;-71
2021/12/08 04:01:35;;;;;;;2.03;1.65;;;14.30;28.60;;;;;;5055771;28;20205;-70
2021/12/08 04:04:05;;;;;;;2.08;1.88;;;14.30;28.60;;;;;;5055755;28;20209;-70
2021/12/08 04:06:39;;;;;;;1.77;1.65;;;14.30;28.70;;;;;;5059170;28;20290;-70
2021/12/08 04:09:15;;;;;;;1.70;1.60;;;14.30;28.70;;;;;;5069280;28;20247;-70
2021/12/08 04:11:43;;;;;;;2.28;2.08;;;14.20;28.60;;;;;;5056025;28;20216;-70
2021/12/08 04:14:15;;;;;;;2.00;1.80;;;14.20;28.60;;;;;;5055460;28;20205;-70
2021/12/08 04:16:47;;;;;;;1.80;1.70;;;14.20;28.60;;;;;;5055972;28;20209;-70
2021/12/08 04:19:15;;;;;;;1.70;1.58;;;14.20;28.60;;;;;;5056272;28;20501;-70
2021/12/08 04:21:43;;;;;;;2.13;1.80;;;14.20;28.60;;;;;;5055764;28;20211;-70
2021/12/08 04:24:11;;;;;;;2.65;1.90;;;14.10;28.60;;;;;;5055773;28;20576;-70
2021/12/08 04:26:42;;;;;;;2.40;1.88;;;14.20;28.80;;;;;;5055739;28;20235;-70
2021/12/08 04:29:13;;;;;;;2.65;1.67;;;14.20;28.70;;;;;;5055318;28;20627;-70
2021/12/08 04:31:42;;;;;;;1.73;1.60;;;14.10;28.60;;;;;;5055656;28;20600;-70
2021/12/08 04:34:16;;;;;;;2.70;2.03;;;14.10;28.60;;;;;;5055211;28;20209;-70
2021/12/08 04:36:47;;;;;;;2.45;1.80;;;14.10;28.70;;;;;;5055137;28;20240;-69
2021/12/08 04:39:20;;;;;;;2.45;2.03;;;14.10;28.80;;;;;;5055359;28;20282;-70
2021/12/08 04:41:55;;;;;;;2.00;1.80;;;14.10;28.80;;;;;;5055311;28;20288;-70
2021/12/08 04:44:31;;;;;;;1.83;1.70;;;14.10;28.70;;;;;;5055389;28;20315;-71
2021/12/08 04:47:25;;;;;;;1.95;1.80;;;14.10;28.80;;;;;;5055622;28;20231;-71
2021/12/08 04:52:52;;;;;;;1.98;1.70;;;14.10;28.80;;;;;;5054851;28;20307;-70
2021/12/08 05:07:00;;;;;;;2.10;1.90;;;14.00;28.80;;;;;;4998076;28;20200;-70
2021/12/08 05:09:31;;;;;;;2.20;2.00;;;14.00;28.90;;;;;;5054260;28;20233;-71
2021/12/08 05:12:04;;;;;;;2.40;2.20;;;14.00;28.80;;;;;;5054563;28;20208;-71
2021/12/08 05:14:37;;;;;;;2.95;2.50;;;14.00;28.80;;;;;;5054235;28;20208;-71
2021/12/08 05:17:11;;;;;;;2.72;2.28;;;13.90;28.80;;;;;;5043010;28;20232;-70
2021/12/08 05:19:41;;;;;;;2.30;2.10;;;13.90;28.70;;;;;;5054660;28;20212;-71
2021/12/08 05:22:11;;;;;;;2.10;1.90;;;13.90;28.80;;;;;;5053843;28;20213;-70
2021/12/08 05:24:44;;;;;;;2.35;2.15;;;13.90;28.80;;;;;;5054316;28;20218;-70
2021/12/08 05:27:15;;;;;;;2.75;2.10;;;13.90;28.80;;;;;;5054737;28;20213;-71
2021/12/08 05:29:45;;;;;;;2.08;1.85;;;13.90;28.70;;;;;;5053858;28;20212;-71
2021/12/08 05:32:14;;;;;;;3.05;2.17;;;13.90;28.80;;;;;;5053543;28;20219;-71
2021/12/08 05:34:44;;;;;;;2.55;2.33;;;13.90;28.80;;;;;;5053468;28;20209;-71
2021/12/08 05:37:13;;;;;;;2.40;2.10;;;13.90;28.80;;;;;;5033257;28;20209;-71
2021/12/08 05:39:42;;;;;;;2.53;2.10;;;13.90;28.80;;;;;;5033965;28;20209;-71
2021/12/08 05:42:12;;;;;;;2.80;2.60;;;13.80;28.70;;;;;;5034221;28;20209;-71
2021/12/08 05:44:41;;;;;;;2.70;2.30;;;13.90;28.80;;;;;;5033645;28;20217;-71
2021/12/08 05:47:12;;;;;;;3.22;2.33;;;13.90;28.80;;;;;;5054798;28;20263;-71
2021/12/08 05:49:41;;;;;;;2.90;2.70;;;13.80;28.70;;;;;;5057582;28;20611;-71
2021/12/08 05:52:09;;;;;;;3.05;2.75;;;13.80;28.70;;;;;;5057057;28;20623;-70
2021/12/08 05:54:39;;;;;;;3.33;2.65;;;13.80;28.80;;;;;;5055454;28;20201;-71
2021/12/08 05:57:09;;;;;;;3.47;2.53;;;13.80;28.70;;;;;;5056325;28;20205;-70
2021/12/08 05:59:37;;;;;;;2.75;2.55;;;13.80;28.80;;;;;;5052627;28;20209;-71
2021/12/08 06:02:07;;;;;;;2.38;2.17;;;13.80;28.80;;;;;;5048041;28;20209;-71
2021/12/08 06:04:35;;;;;;;2.50;2.30;;;13.70;28.70;;;;;;5055189;28;20460;-71
2021/12/08 06:07:06;;;;;;;4.10;2.60;;;13.80;28.80;;;;;;5055849;28;20205;-71
2021/12/08 06:09:33;;;;;;;2.72;2.53;;;13.80;29.40;;;;;;5055121;28;20709;-69
2021/12/08 06:12:01;;;;;;;2.42;2.22;;;13.70;28.70;;;;;;5056938;28;20205;-70
2021/12/08 06:14:32;;;;;;;2.40;2.20;;;13.70;28.70;;;;;;5056535;28;20209;-70
2021/12/08 06:17:02;;;;;;;3.28;2.70;;;13.70;28.70;;;;;;5054171;28;20209;-70
2021/12/08 06:19:29;;;;;;;2.67;2.30;;;13.70;28.70;;;;;;5054334;28;20627;-71
2021/12/08 06:21:56;;;;;;;2.95;2.47;;;13.70;28.70;;;;;;5054924;28;20213;-71
2021/12/08 06:24:25;;;;;;;2.50;2.30;;;13.70;28.70;;;;;;5055048;28;20197;-71
2021/12/08 06:26:53;;;;;;;2.58;2.38;;;13.70;28.70;;;;;;5056132;28;20201;-70
2021/12/08 06:29:21;;;;;;;2.75;2.30;;;13.70;28.80;;;;;;5038850;28;20238;-70
2021/12/08 06:31:51;;;;;;;2.67;2.38;;;13.70;28.80;;;;;;5033465;28;20202;-70
2021/12/08 06:34:18;;;;;;;2.58;2.38;;;13.70;28.80;;;;;;5035168;28;20292;-71
2021/12/08 06:36:51;;;;;;;3.75;2.58;;;13.70;28.80;;;;;;5034740;28;20217;-71
2021/12/08 06:39:23;;;;;;;3.17;2.60;;;13.60;28.70;;;;;;5034856;28;20515;-71
2021/12/08 06:41:57;;;;;;;2.83;2.45;;;13.60;28.70;;;;;;5035070;28;20530;-70
2021/12/08 06:44:27;;;;;;;2.58;2.28;;;13.60;28.70;;;;;;5034206;28;20228;-71
2021/12/08 06:46:58;;;;;;;2.85;2.47;;;13.60;28.80;;;;;;5034068;28;20212;-71
2021/12/08 06:49:25;;;;;;;3.10;2.80;;;13.60;28.80;;;;;;5034888;28;20213;-71
2021/12/08 06:51:56;;;;;;;2.70;2.50;;;13.60;28.80;;;;;;5034111;28;20220;-71
2021/12/08 06:54:28;;;;;;;3.75;2.50;;;13.60;28.80;;;;;;5034987;28;20209;-71
2021/12/08 06:57:01;;;;;;;3.22;2.60;;;13.60;28.80;;;;;;5034607;28;20620;-70
2021/12/08 06:59:33;;;;;;;2.80;2.45;;;13.50;28.70;;;;;;5033389;28;20236;-70
2021/12/08 07:02:09;;;;;;;2.85;2.65;;;13.60;28.80;;;;;;5033154;28;20287;-71
2021/12/08 07:04:53;;;;;;;2.63;2.42;;;13.50;28.70;;;;;;5034489;28;20706;-71
2021/12/08 07:07:25;;;;;;;2.95;2.60;;;13.50;28.70;;;;;;5033489;28;20205;-71
2021/12/08 07:09:54;;;;;;;2.90;2.60;;;13.50;28.70;;;;;;5046019;28;20405;-71
2021/12/08 07:12:28;;;;;;;3.67;2.60;;;13.50;28.70;;;;;;5054334;28;20508;-71
2021/12/08 07:15:00;;;;;;;2.83;2.63;;;13.50;28.80;;;;;;5054364;28;20491;-71
2021/12/08 07:17:31;;;;;;;2.90;2.63;;;13.50;28.70;;;;;;5053155;28;20212;-70
2021/12/08 07:20:14;;;;;;;2.90;2.70;;;13.50;28.70;;;;;;5054183;28;20201;-70
2021/12/08 07:22:45;;;;;;;2.75;2.55;;;13.50;28.70;;;;;;5054060;28;20209;-70
2021/12/08 07:25:15;;;;;;;2.83;2.50;;;13.50;28.70;;;;;;5054632;28;20209;-71
2021/12/08 07:27:43;;;;;;;3.13;2.50;;;13.50;28.70;;;;;;5054713;28;20216;-70
2021/12/08 07:30:14;;;;;;;3.00;2.70;;;13.50;28.70;;;;;;5055150;28;20199;-71
2021/12/08 07:32:42;;;;;;;2.90;2.60;;;13.50;28.80;;;;;;5054940;28;20209;-71
2021/12/08 07:35:14;;;;;;;3.13;2.65;;;13.50;28.70;;;;;;5054468;28;20361;-70
2021/12/08 07:37:41;;;;;;;2.55;2.35;;;13.50;28.80;;;;;;5055668;28;20289;-70
2021/12/08 07:40:15;;;;;;;3.03;2.72;;;13.40;28.70;;;;;;5055537;28;20205;-71
2021/12/08 07:42:47;;;;;;;2.78;2.33;;;13.40;28.70;;;;;;5056227;28;20197;-70
2021/12/08 07:45:18;;;;;;;3.40;2.47;;;13.40;28.70;;;;;;5055267;28;20193;-70
2021/12/08 07:47:45;;;;;;;3.08;2.67;;;13.40;28.80;;;;;;5055492;28;20197;-70
2021/12/08 07:50:18;;;;;;;2.65;2.45;;;13.40;28.70;;;;;;5056006;28;20204;-70
2021/12/08 07:52:49;;;;;;;3.22;2.63;;;13.40;28.70;;;;;;5055546;28;20209;-70
2021/12/08 07:55:20;;;;;;;5.28;2.70;;;13.40;28.70;;;;;;5055190;28;20205;-70
2021/12/08 07:57:50;;;;;;;5.53;3.17;;;13.40;28.80;;;;;;5054453;28;20212;-70
2021/12/08 08:00:22;;;;;;;3.15;2.47;;;13.30;28.80;;;;;;5053709;28;20209;-70
2021/12/08 08:02:50;;;;;;;3.83;2.90;;;13.30;28.80;;;;;;5053376;28;20209;-71
2021/12/08 08:05:18;;;;;;;4.95;2.90;;;13.40;28.90;;;;;;5052405;28;20239;-70
2021/12/08 08:07:47;;;;;;;3.30;2.47;;;13.40;28.90;;;;;;5052852;28;20365;-70
2021/12/08 08:10:16;;;;;;;2.70;2.50;;;13.30;28.80;;;;;;5051861;28;20240;-70
2021/12/08 08:12:45;;;;;;;4.40;2.80;;;13.40;28.90;;;;;;5052108;28;20497;-69
2021/12/08 08:15:20;;;;;;;4.15;2.55;;;13.40;28.90;;;;;;5053026;28;20209;-71
2021/12/08 08:17:50;;;;;;;3.35;2.83;;;13.40;29.00;;;;;;5054352;28;20200;-69
2021/12/08 08:20:21;;;;;;;2.97;2.67;;;13.40;29.00;;;;;;5054280;28;20211;-71
2021/12/08 08:22:49;;;;;;;3.20;2.78;;;13.40;29.00;;;;;;5055158;28;20222;-70
2021/12/08 08:25:21;;;;;;;18.33;16.40;;;13.40;29.00;;;;;;5054438;28;20208;-70
2021/12/08 08:27:48;;;;;;;23.90;21.45;;;13.40;29.00;;;;;;5054437;28;20209;-70
2021/12/08 08:30:21;;;;;;;17.83;15.30;;;13.40;28.90;;;;;;5055165;28;20279;-71
2021/12/08 08:32:50;;;;;;;14.85;13.43;;;13.40;28.90;;;;;;5055040;28;20220;-69
2021/12/08 08:35:21;;;;;;;15.75;14.15;;;13.40;28.90;;;;;;5054853;28;20201;-69
2021/12/08 08:37:49;;;;;;;14.63;13.13;;;13.40;28.90;;;;;;5055050;28;20516;-70
2021/12/08 08:40:22;;;;;;;13.45;12.13;;;13.40;28.90;;;;;;5054647;28;20725;-70
2021/12/08 08:42:51;;;;;;;13.57;12.13;;;13.40;28.90;;;;;;5054347;28;20208;-70
2021/12/08 08:45:25;;;;;;;12.50;11.23;;;13.40;28.90;;;;;;5054412;28;20216;-71
2021/12/08 08:47:55;;;;;;;12.38;10.52;;;13.40;29.50;;;;;;5054485;28;20205;-70
2021/12/08 08:50:25;;;;;;;11.70;10.50;;;13.40;28.90;;;;;;5053745;28;20205;-70
2021/12/08 08:52:56;;;;;;;11.38;10.18;;;13.40;29.00;;;;;;5054081;28;20261;-70
2021/12/08 08:55:27;;;;;;;11.23;10.13;;;13.30;28.80;;;;;;5054409;28;20713;-70
2021/12/08 08:57:55;;;;;;;10.85;8.77;;;13.40;29.00;;;;;;5053383;28;20201;-70
2021/12/08 09:00:31;;;;;;;9.88;8.98;;;13.40;29.00;;;;;;5053449;28;20774;-70
2021/12/08 09:03:01;;;;;;;9.70;8.23;;;13.40;29.00;;;;;;5053508;28;20205;-70
2021/12/08 09:05:32;;;;;;;8.90;8.00;;;13.40;28.90;;;;;;5053221;28;20208;-70
2021/12/08 09:08:01;;;;;;;8.10;7.30;;;13.40;29.00;;;;;;5052792;28;20197;-70
2021/12/08 09:10:33;;;;;;;8.23;7.50;;;13.40;29.00;;;;;;5053708;28;20243;-70
2021/12/08 09:13:05;;;;;;;8.13;7.32;;;13.40;29.00;;;;;;5053677;28;20209;-70
2021/12/08 09:15:38;;;;;;;7.78;7.00;;;13.30;29.00;;;;;;5054047;28;20212;-70
2021/12/08 09:18:09;;;;;;;8.85;7.15;;;13.40;29.00;;;;;;5053893;28;20212;-70
2021/12/08 09:20:43;;;;;;;8.57;7.07;;;13.40;29.00;;;;;;5053297;28;20677;-70
2021/12/08 09:23:16;;;;;;;7.32;6.63;;;13.40;29.00;;;;;;5053063;28;20618;-70
2021/12/08 09:25:48;;;;;;;7.35;6.55;;;13.40;28.90;;;;;;5054051;28;20464;-70
2021/12/08 09:28:18;;;;;;;7.20;6.00;;;13.40;29.00;;;;;;5054204;28;20220;-70
2021/12/08 09:30:55;;;;;;;7.07;6.38;;;13.40;29.00;;;;;;5053688;28;20607;-69
2021/12/08 09:33:25;;;;;;;6.40;5.80;;;13.40;29.00;;;;;;5043247;28;20236;-70
2021/12/08 09:35:56;;;;;;;6.43;5.72;;;13.30;29.00;;;;;;5053128;28;20217;-70
2021/12/08 09:38:27;;;;;;;6.93;5.43;;;13.30;29.00;;;;;;5053381;28;20205;-70
2021/12/08 09:41:00;;;;;;;6.45;5.45;;;13.40;29.00;;;;;;5052094;28;20209;-70
2021/12/08 09:43:34;;;;;;;6.93;5.55;;;13.40;29.00;;;;;;5052616;28;20304;-70
2021/12/08 09:46:06;;;;;;;6.97;5.47;;;13.30;29.00;;;;;;5051367;28;20217;-70
2021/12/08 09:48:34;;;;;;;6.88;5.18;;;13.40;29.00;;;;;;5050752;28;20205;-70
2021/12/08 09:51:01;;;;;;;5.38;4.75;;;13.40;29.00;;;;;;5050307;28;20240;-70
2021/12/08 09:53:28;;;;;;;5.30;4.80;;;13.40;29.00;;;;;;5051590;28;20213;-69
2021/12/08 09:55:57;;;;;;;5.82;5.22;;;13.40;29.00;;;;;;5052370;28;20697;-71
2021/12/08 09:58:24;;;;;;;5.22;4.60;;;13.30;29.00;;;;;;5051492;28;20228;-70
2021/12/08 10:00:55;;;;;;;5.63;4.88;;;13.40;29.00;;;;;;5050228;28;20208;-70
2021/12/08 10:03:24;;;;;;;6.68;5.05;;;13.40;29.10;;;;;;5050915;28;20311;-70
2021/12/08 10:05:52;;;;;;;5.50;5.00;;;13.30;28.90;;;;;;5050094;28;20215;-70
2021/12/08 10:08:19;;;;;;;5.60;4.38;;;13.30;29.00;;;;;;5050973;28;20275;-70
2021/12/08 10:10:48;;;;;;;5.00;4.38;;;13.30;29.00;;;;;;5050087;28;20251;-70
2021/12/08 10:13:16;;;;;;;5.53;4.63;;;13.30;29.00;;;;;;5050265;28;20216;-70
2021/12/08 10:15:43;;;;;;;4.93;4.40;;;13.30;29.00;;;;;;5050881;28;20205;-69
2021/12/08 10:18:11;;;;;;;4.82;4.32;;;13.30;29.00;;;;;;5050909;28;20602;-70
2021/12/08 10:20:43;;;;;;;4.40;4.00;;;13.30;29.00;;;;;;5050568;28;20628;-70
2021/12/08 10:23:15;;;;;;;5.32;4.63;;;13.30;29.10;;;;;;5051202;28;20210;-71
2021/12/08 10:25:45;;;;;;;6.80;4.50;;;13.30;29.30;;;;;;5049973;28;20205;-68
2021/12/08 10:28:15;;;;;;;6.13;4.60;;;13.30;29.60;;;;;;5049651;28;20224;-71
2021/12/08 10:30:47;;;;;;;6.30;4.57;;;13.30;29.70;;;;;;5049194;28;20213;-71
2021/12/08 10:34:01;;;;;;;7.20;4.13;;;13.30;29.50;;;;;;5050453;28;20216;-70
2021/12/08 10:36:45;;;;;;;4.70;4.25;;;13.30;29.30;;;;;;5052930;28;20209;-71
2021/12/08 10:39:20;;;;;;;4.50;4.10;;;13.40;29.40;;;;;;5050995;28;20221;-70
2021/12/08 10:42:04;;;;;;;5.18;4.00;;;13.40;29.40;;;;;;5053951;28;20222;-71
2021/12/08 10:44:40;;;;;;;4.35;3.70;;;13.40;29.40;;;;;;5052704;28;20584;-71
2021/12/08 10:47:08;;;;;;;5.07;3.70;;;13.40;29.40;;;;;;5052560;28;20234;-71
2021/12/08 10:55:19;;;;;;;4.60;3.58;;;13.40;29.70;;;;;;5051784;28;20660;-71
2021/12/08 10:57:50;;;;;;;5.30;4.20;;;13.30;29.50;;;;;;5051881;28;20205;-71
2021/12/08 11:00:20;;;;;;;6.28;3.75;;;13.30;29.40;;;;;;5052597;28;20229;-71
2021/12/08 11:02:51;;;;;;;4.00;3.55;;;13.30;29.40;;;;;;5052508;28;20255;-73
2021/12/08 11:05:37;;;;;;;4.90;4.00;;;13.30;29.50;;;;;;5051476;28;20209;-72
2021/12/08 11:08:09;;;;;;;5.63;3.60;;;13.30;29.40;;;;;;5052920;28;20223;-72
2021/12/08 11:10:41;;;;;;;4.57;3.70;;;13.20;29.40;;;;;;5052499;28;20225;-73
2021/12/08 11:13:11;;;;;;;4.18;3.50;;;13.20;29.40;;;;;;5052992;28;20205;-72
2021/12/08 11:15:39;;;;;;;4.20;3.83;;;13.20;29.40;;;;;;5053204;28;20781;-72
2021/12/08 11:18:15;;;;;;;4.90;4.10;;;13.20;29.40;;;;;;5052956;28;20366;-72
2021/12/08 11:20:51;;;;;;;4.47;3.78;;;13.20;29.40;;;;;;5053338;28;20229;-73
2021/12/08 11:23:42;;;;;;;3.45;3.15;;;13.20;29.40;;;;;;5053465;28;20719;-71
2021/12/08 11:26:19;;;;;;;3.95;3.28;;;13.20;29.30;;;;;;5052533;28;20201;-71
2021/12/08 11:28:51;;;;;;;3.72;3.40;;;13.20;29.30;;;;;;5053159;28;20207;-71
2021/12/08 11:31:20;;;;;;;3.63;3.30;;;13.20;29.30;;;;;;5052121;28;20201;-71
2021/12/08 11:33:59;;;;;;;4.43;3.53;;;13.20;29.30;;;;;;5052011;28;20205;-72
2021/12/08 11:36:27;;;;;;;5.40;3.58;;;13.20;29.30;;;;;;5052460;28;20223;-71
2021/12/08 11:38:55;;;;;;;3.65;3.35;;;13.10;29.30;;;;;;5051658;28;20479;-71
2021/12/08 11:41:36;;;;;;;3.85;3.50;;;13.10;29.30;;;;;;5049553;28;20213;-71
2021/12/08 11:44:07;;;;;;;3.50;3.20;;;13.10;29.30;;;;;;5052292;28;20235;-72
2021/12/08 11:46:40;;;;;;;3.75;3.40;;;13.10;29.30;;;;;;5071432;28;20208;-71
2021/12/08 11:49:09;;;;;;;3.95;3.55;;;13.10;29.30;;;;;;5072299;28;20215;-71
2021/12/08 11:51:52;;;;;;;3.53;3.22;;;13.10;29.30;;;;;;5073801;28;20235;-72
2021/12/08 11:54:36;;;;;;;3.70;3.40;;;13.10;29.30;;;;;;5073730;28;20208;-71
2021/12/08 11:57:14;;;;;;;4.00;3.60;;;13.10;29.40;;;;;;5071250;28;20306;-71
2021/12/08 11:59:59;;;;;;;3.80;3.47;;;13.10;29.40;;;;;;5071821;28;20493;-72
2021/12/08 12:02:28;;;;;;;3.55;3.25;;;13.10;29.30;;;;;;5070755;28;20200;-72
2021/12/08 12:04:56;;;;;;;4.07;3.53;;;13.10;29.30;;;;;;5071358;28;20201;-73
2021/12/08 12:07:23;;;;;;;3.70;3.40;;;13.00;29.30;;;;;;5071467;28;20204;-72
2021/12/08 12:09:52;;;;;;;3.35;3.05;;;13.00;29.30;;;;;;5071464;28;20219;-71
2021/12/08 12:12:19;;;;;;;3.70;3.40;;;13.00;29.30;;;;;;5071284;28;20492;-72
2021/12/08 12:14:47;;;;;;;3.42;3.13;;;13.00;29.30;;;;;;5071672;28;20208;-72
2021/12/08 12:17:15;;;;;;;3.72;3.30;;;13.00;29.30;;;;;;5071826;28;20212;-71
2021/12/08 12:19:51;;;;;;;4.30;3.25;;;13.00;29.40;;;;;;5071074;28;20243;-72
2021/12/08 12:22:32;;;;;;;4.13;3.30;;;13.00;29.40;;;;;;5070800;28;20567;-71
2021/12/08 12:25:22;;;;;;;3.85;3.55;;;13.00;29.30;;;;;;5071893;28;20204;-71
2021/12/08 12:28:03;;;;;;;3.38;3.08;;;13.00;29.40;;;;;;5071046;28;20200;-71
2021/12/08 12:30:46;;;;;;;4.57;3.25;;;13.00;29.40;;;;;;5070510;28;20196;-73
2021/12/08 12:33:18;;;;;;;3.10;2.90;;;13.00;29.30;;;;;;5070906;28;20461;-71
2021/12/08 12:35:50;;;;;;;3.63;3.33;;;13.00;29.30;;;;;;5070900;28;20208;-72
2021/12/08 12:38:17;;;;;;;3.58;3.28;;;13.00;29.30;;;;;;5071985;28;20653;-71
2021/12/08 12:40:51;;;;;;;3.40;3.10;;;13.00;29.30;;;;;;5069740;28;20220;-71
2021/12/08 12:43:28;;;;;;;3.50;2.80;;;12.90;29.30;;;;;;5070354;28;20293;-72
2021/12/08 12:46:04;;;;;;;3.20;2.90;;;13.00;29.30;;;;;;5070698;28;20211;-73
2021/12/08 12:48:32;;;;;;;3.50;3.20;;;12.90;29.30;;;;;;5071011;28;20208;-72
2021/12/08 12:51:02;;;;;;;3.40;3.10;;;12.90;29.30;;;;;;5070658;28;20258;-72
2021/12/08 12:53:45;;;;;;;3.10;2.80;;;12.90;29.30;;;;;;5071009;28;20208;-71
2021/12/08 12:56:17;;;;;;;3.20;3.00;;;12.90;29.30;;;;;;5070622;28;20239;-72
2021/12/08 12:58:47;;;;;;;3.17;2.88;;;12.90;29.30;;;;;;5071374;28;20425;-71
2021/12/08 13:01:18;;;;;;;3.47;2.95;;;12.90;29.30;;;;;;5070141;28;20228;-72
2021/12/08 13:03:52;;;;;;;3.05;2.85;;;12.90;29.30;;;;;;5069390;28;20608;-72
2021/12/08 13:06:42;;;;;;;3.30;3.00;;;12.90;29.30;;;;;;5070741;28;20203;-71
2021/12/08 13:09:32;;;;;;;3.20;2.90;;;12.90;29.30;;;;;;5069615;28;20347;-71
2021/12/08 13:12:10;;;;;;;2.78;2.53;;;12.90;29.30;;;;;;5050364;28;20585;-72
2021/12/08 13:14:37;;;;;;;2.90;2.70;;;12.90;29.30;;;;;;5028975;28;20209;-71
2021/12/08 13:17:16;;;;;;;2.53;2.33;;;12.90;29.30;;;;;;5029037;28;20236;-71
2021/12/08 13:19:46;;;;;;;3.40;2.80;;;12.90;29.30;;;;;;5030019;28;20223;-72
2021/12/08 13:22:42;;;;;;;3.60;2.60;;;12.80;29.30;;;;;;5029727;28;20224;-71
2021/12/08 13:25:24;;;;;;;3.30;2.85;;;12.80;29.30;;;;;;5031056;28;20233;-72
2021/12/08 13:27:56;;;;;;;3.10;2.80;;;12.80;29.30;;;;;;5039719;28;20201;-71
2021/12/08 13:30:26;;;;;;;3.05;2.78;;;12.80;29.20;;;;;;5048939;28;20201;-71
2021/12/08 13:33:07;;;;;;;2.83;2.63;;;12.80;29.20;;;;;;5049216;28;20211;-72
2021/12/08 13:35:34;;;;;;;3.60;2.80;;;12.80;29.20;;;;;;5050316;28;20212;-71
2021/12/08 13:38:02;;;;;;;2.95;2.70;;;12.80;29.30;;;;;;5049796;28;20494;-71
2021/12/08 13:40:49;;;;;;;2.90;2.70;;;12.80;29.30;;;;;;5049839;28;20236;-71